createdAt,value
2022-08-07T00:01:44.419Z,102425.88
2022-08-07T00:04:16.679Z,102415.13
2022-08-07T00:06:52.795Z,102414.22
2022-08-07T00:09:22.804Z,102415.13
2022-08-07T00:11:55.928Z,102409.84
2022-08-07T00:14:31.035Z,102415.38
2022-08-07T00:17:02.539Z,102404.72
2022-08-07T00:19:59.905Z,102405.75
2022-08-07T00:22:34.501Z,102398.69
2022-08-07T00:25:06.941Z,102395.38
2022-08-07T00:27:52.244Z,102400.94
2022-08-07T00:30:28.139Z,102398.41
2022-08-07T00:32:58.300Z,102400.38
2022-08-07T00:35:29.625Z,102395.19
2022-08-07T00:37:59.554Z,102395.34
2022-08-07T00:40:39.409Z,102395.50
2022-08-07T00:43:58.749Z,102402.00
2022-08-07T00:45:59.220Z,102393.16
2022-08-07T00:48:30.994Z,102391.53
2022-08-07T00:51:02.988Z,102398.81
2022-08-07T00:53:38.608Z,102394.44
2022-08-07T00:56:15.467Z,102392.78
2022-08-07T00:58:47.096Z,102392.84
2022-08-07T01:01:20.362Z,102383.94
2022-08-07T01:03:55.766Z,102386.72
2022-08-07T01:06:30.279Z,102394.00
2022-08-07T01:09:01.148Z,102391.38
2022-08-07T01:12:23.439Z,102389.59
2022-08-07T01:14:21.301Z,102390.66
2022-08-07T01:16:59.188Z,102387.97
2022-08-07T01:19:32.211Z,102385.41
2022-08-07T01:22:03.988Z,102388.22
2022-08-07T01:24:37.604Z,102388.34
2022-08-07T01:27:06.514Z,102390.22
2022-08-07T01:29:48.365Z,102396.63
2022-08-07T01:32:19.411Z,102390.41
2022-08-07T01:34:51.895Z,102379.69
2022-08-07T01:37:22.045Z,102383.34
2022-08-07T01:39:50.679Z,102382.47
2022-08-07T01:42:38.474Z,102378.88
2022-08-07T01:45:16.085Z,102377.94
2022-08-07T01:48:18.426Z,102381.44
2022-08-07T01:50:40.207Z,102379.69
2022-08-07T01:53:21.143Z,102389.47
2022-08-07T01:55:56.950Z,102381.44
2022-08-07T01:58:33.782Z,102374.28
2022-08-07T02:01:25.537Z,102378.75
2022-08-07T02:04:08.654Z,102380.56
2022-08-07T02:06:39.144Z,102375.97
2022-08-07T02:09:51.900Z,102369.63
2022-08-07T02:12:17.692Z,102369.56
2022-08-07T02:14:51.270Z,102369.63
2022-08-07T02:17:27.478Z,102372.47
2022-08-07T02:20:07.359Z,102368.88
2022-08-07T02:22:47.247Z,102363.63
2022-08-07T02:26:30.759Z,102365.41
2022-08-07T02:28:25.725Z,102368.19
2022-08-07T02:30:56.757Z,102362.84
2022-08-07T02:33:41.869Z,102361.97
2022-08-07T02:36:28.181Z,102359.28
2022-08-07T02:39:16.388Z,102363.78
2022-08-07T02:41:55.144Z,102369.19
2022-08-07T02:44:34.525Z,102360.22
2022-08-07T02:47:06.748Z,102367.44
2022-08-07T02:49:58.840Z,102358.47
2022-08-07T02:52:30.976Z,102365.75
2022-08-07T02:55:27.342Z,102364.88
2022-08-07T02:58:03.924Z,102364.00
2022-08-07T03:00:39.131Z,102358.59
2022-08-07T03:03:13.430Z,102347.78
2022-08-07T03:05:42.856Z,102350.44
2022-08-07T03:08:12.221Z,102341.50
2022-08-07T03:10:47.038Z,102345.22
2022-08-07T03:13:19.706Z,102353.31
2022-08-07T03:15:56.299Z,102346.13
2022-08-07T03:18:34.661Z,102347.06
2022-08-07T03:21:08.867Z,102350.84
2022-08-07T03:24:20.998Z,102351.94
2022-08-07T03:26:33.982Z,102347.63
2022-08-07T03:29:10.402Z,102344.25
2022-08-07T03:31:42.295Z,102350.66
2022-08-07T03:34:18.485Z,102346.31
2022-08-07T03:36:53.660Z,102347.38
2022-08-07T03:39:56.550Z,102348.31
2022-08-07T03:42:13.232Z,102346.56
2022-08-07T03:44:47.282Z,102345.75
2022-08-07T03:47:22.848Z,102342.25
2022-08-07T03:49:52.471Z,102337.78
2022-08-07T03:52:26.468Z,102337.81
2022-08-07T03:55:06.131Z,102334.25
2022-08-07T03:59:05.757Z,102337.00
2022-08-07T04:00:29.210Z,102331.81
2022-08-07T04:02:59.900Z,102338.13
2022-08-07T04:05:40.541Z,102337.25
2022-08-07T04:08:16.266Z,102339.00
2022-08-07T04:10:54.600Z,102344.41
2022-08-07T04:14:33.005Z,102349.75
2022-08-07T04:16:31.310Z,102345.22
2022-08-07T04:19:04.352Z,102351.31
2022-08-07T04:21:58.841Z,102346.63
2022-08-07T04:24:34.134Z,102356.34
2022-08-07T04:27:20.695Z,102350.00
2022-08-07T04:30:01.260Z,102353.53
2022-08-07T04:32:35.116Z,102357.94
2022-08-07T04:35:05.765Z,102352.66
2022-08-07T04:38:00.779Z,102351.53
2022-08-07T04:40:30.109Z,102355.88
2022-08-07T04:43:01.846Z,102351.22
2022-08-07T04:45:52.085Z,102348.34
2022-08-07T04:48:44.702Z,102353.56
2022-08-07T04:51:27.600Z,102347.94
2022-08-07T04:54:06.716Z,102354.75
2022-08-07T04:58:12.788Z,102351.69
2022-08-07T05:00:11.510Z,102363.72
2022-08-07T05:02:33.326Z,102356.06
2022-08-07T05:05:11.911Z,102364.59
2022-08-07T05:08:07.093Z,102368.63
2022-08-07T05:10:42.876Z,102367.13
2022-08-07T05:14:56.260Z,102365.78
2022-08-07T05:16:11.125Z,102365.22
2022-08-07T05:18:48.269Z,102366.56
2022-08-07T05:21:58.997Z,102369.66
2022-08-07T05:24:17.113Z,102372.63
2022-08-07T05:26:47.833Z,102367.66
2022-08-07T05:29:19.065Z,102369.16
2022-08-07T05:31:52.690Z,102364.31
2022-08-07T05:34:26.411Z,102369.44
2022-08-07T05:36:57.991Z,102368.88
2022-08-07T05:40:17.949Z,102377.59
2022-08-07T05:42:33.255Z,102372.09
2022-08-07T05:45:14.080Z,102370.75
2022-08-07T05:48:02.383Z,102374.00
2022-08-07T05:50:33.898Z,102375.31
2022-08-07T05:53:04.133Z,102374.94
2022-08-07T05:56:03.528Z,102377.34
2022-08-07T05:58:36.394Z,102374.34
2022-08-07T06:01:10.592Z,102376.66
2022-08-07T06:03:56.889Z,102375.72
2022-08-07T06:06:32.635Z,102374.16
2022-08-07T06:09:04.632Z,102373.38
2022-08-07T06:11:34.714Z,102378.03
2022-08-07T06:14:12.014Z,102376.97
2022-08-07T06:16:50.226Z,102379.38
2022-08-07T06:19:57.966Z,102380.00
2022-08-07T06:22:14.759Z,102382.34
2022-08-07T06:24:57.930Z,102381.88
2022-08-07T06:27:44.232Z,102374.31
2022-08-07T06:30:32.099Z,102371.13
2022-08-07T06:33:10.041Z,102371.63
2022-08-07T06:35:47.908Z,102369.97
2022-08-07T06:38:33.211Z,102371.84
2022-08-07T06:41:13.244Z,102378.19
2022-08-07T06:43:46.004Z,102365.69
2022-08-07T06:46:15.678Z,102374.09
2022-08-07T06:49:00.117Z,102368.94
2022-08-07T06:51:34.745Z,102376.44
2022-08-07T06:55:29.551Z,102368.94
2022-08-07T06:56:58.028Z,102365.44
2022-08-07T07:00:13.059Z,102375.81
2022-08-07T07:02:48.184Z,102378.91
2022-08-07T07:05:12.871Z,102381.63
2022-08-07T07:08:00.195Z,102367.09
2022-08-07T07:10:33.354Z,102375.63
2022-08-07T07:13:13.267Z,102376.00
2022-08-07T07:15:51.699Z,102379.06
2022-08-07T07:18:47.158Z,102371.94
2022-08-07T07:21:19.355Z,102364.66
2022-08-07T07:24:05.991Z,102373.59
2022-08-07T07:26:40.668Z,102371.06
2022-08-07T07:29:40.024Z,102379.34
2022-08-07T07:32:09.187Z,102373.44
2022-08-07T07:34:44.888Z,102372.63
2022-08-07T07:37:22.104Z,102361.31
2022-08-07T07:40:14.682Z,102366.66
2022-08-07T07:42:47.070Z,102362.41
2022-08-07T07:46:36.587Z,102363.66
2022-08-07T07:48:35.009Z,102354.41
2022-08-07T07:51:08.100Z,102356.31
2022-08-07T07:53:51.955Z,102357.66
2022-08-07T07:56:30.421Z,102341.41
2022-08-07T07:59:02.301Z,102349.41
2022-08-07T08:02:02.467Z,102349.88
2022-08-07T08:04:25.706Z,102344.25
2022-08-07T08:06:57.096Z,102342.66
2022-08-07T08:09:33.202Z,102344.56
2022-08-07T08:12:50.124Z,102345.84
2022-08-07T08:15:11.513Z,102346.50
2022-08-07T08:17:57.334Z,102340.53
2022-08-07T08:20:31.891Z,102335.00
2022-08-07T08:23:19.079Z,102338.13
2022-08-07T08:26:08.419Z,102340.81
2022-08-07T08:28:45.163Z,102340.81
2022-08-07T08:31:22.764Z,102335.56
2022-08-07T08:34:02.607Z,102345.03
2022-08-07T08:36:35.542Z,102340.78
2022-08-07T08:39:05.439Z,102334.09
2022-08-07T08:41:57.092Z,102342.13
2022-08-07T08:44:44.984Z,102341.00
2022-08-07T08:47:27.263Z,102333.91
2022-08-07T08:50:06.033Z,102331.66
2022-08-07T08:52:51.480Z,102333.63
2022-08-07T08:55:53.745Z,102328.53
2022-08-07T08:58:28.714Z,102335.63
2022-08-07T09:01:15.188Z,102342.25
2022-08-07T09:03:57.866Z,102345.47
2022-08-07T09:06:48.067Z,102349.34
2022-08-07T09:09:36.724Z,102343.34
2022-08-07T09:12:31.244Z,102342.50
2022-08-07T09:16:24.755Z,102338.75
2022-08-07T09:18:28.228Z,102348.22
2022-08-07T09:21:58.222Z,102339.63
2022-08-07T09:24:32.713Z,102344.34
2022-08-07T09:27:19.779Z,102344.25
2022-08-07T09:30:04.032Z,102342.88
2022-08-07T09:33:16.662Z,102335.91
2022-08-07T09:36:02.738Z,102339.63
2022-08-07T09:38:50.279Z,102342.00
2022-08-07T09:41:43.070Z,102334.91
2022-08-07T09:44:58.343Z,102332.28
2022-08-07T09:47:57.844Z,102330.53
2022-08-07T09:50:35.347Z,102330.16
2022-08-07T09:53:08.443Z,102330.16
2022-08-07T09:56:03.763Z,102331.50
2022-08-07T09:59:21.979Z,102330.16
2022-08-07T10:02:24.223Z,102329.63
2022-08-07T10:05:29.694Z,102332.34
2022-08-07T10:08:56.155Z,102317.16
2022-08-07T10:12:00.970Z,102321.50
2022-08-07T10:15:15.415Z,102317.75
2022-08-07T10:18:08.501Z,102314.47
2022-08-07T10:20:54.520Z,102319.34
2022-08-07T10:24:06.343Z,102316.53
2022-08-07T10:26:53.149Z,102321.72
2022-08-07T10:30:06.563Z,102311.78
2022-08-07T10:33:17.388Z,102308.72
2022-08-07T10:36:11.278Z,102298.94
2022-08-07T10:38:52.821Z,102298.22
2022-08-07T10:41:51.486Z,102303.22
2022-08-07T10:44:38.450Z,102306.13
2022-08-07T10:47:26.891Z,102298.41
2022-08-07T10:50:11.771Z,102294.31
2022-08-07T10:52:56.642Z,102297.31
2022-08-07T11:17:45.270Z,102279.84
2022-08-07T11:20:22.539Z,102275.94
2022-08-07T11:23:02.650Z,102276.44
2022-08-07T11:25:42.293Z,102274.69
2022-08-07T11:28:21.015Z,102272.72
2022-08-07T11:31:00.594Z,102275.56
2022-08-07T11:33:58.463Z,102267.59
2022-08-07T11:36:49.668Z,102275.44
2022-08-07T11:40:01.331Z,102265.88
2022-08-07T11:42:46.029Z,102261.56
2022-08-07T11:45:35.435Z,102263.59
2022-08-07T11:48:38.175Z,102257.25
2022-08-07T11:51:44.789Z,102257.81
2022-08-07T11:54:29.850Z,102255.16
2022-08-07T11:57:16.765Z,102259.84
2022-08-07T12:00:19.831Z,102255.28
2022-08-07T12:03:46.621Z,102256.09
2022-08-07T12:06:44.831Z,102256.59
2022-08-07T12:09:32.539Z,102252.59
2022-08-07T12:12:11.430Z,102247.94
2022-08-07T12:14:56.351Z,102243.00
2022-08-07T12:17:41.603Z,102240.31
2022-08-07T12:20:37.456Z,102238.34
2022-08-07T12:24:05.148Z,102232.19
2022-08-07T12:26:34.446Z,102228.56
2022-08-07T12:29:13.964Z,102231.22
2022-08-07T12:32:03.996Z,102231.06
2022-08-07T12:34:37.888Z,102233.81
2022-08-07T12:37:27.894Z,102234.78
2022-08-07T12:40:01.006Z,102233.44
2022-08-07T12:42:32.474Z,102231.44
2022-08-07T12:45:08.256Z,102223.25
2022-08-07T12:47:49.306Z,102222.03
2022-08-07T12:50:39.126Z,102222.97
2022-08-07T12:53:19.348Z,102218.22
2022-08-07T12:56:04.058Z,102211.06
2022-08-07T12:58:43.827Z,102205.16
2022-08-07T13:01:32.693Z,102206.69
2022-08-07T13:04:32.530Z,102197.00
2022-08-07T13:08:12.730Z,102212.72
2022-08-07T13:10:51.389Z,102207.97
2022-08-07T13:13:48.864Z,102206.72
2022-08-07T13:16:32.216Z,102208.06
2022-08-07T13:19:18.390Z,102204.44
2022-08-07T13:22:19.930Z,102215.00
2022-08-07T13:25:02.471Z,102206.44
2022-08-07T13:28:12.459Z,102209.06
2022-08-07T13:30:40.430Z,102206.31
2022-08-07T13:34:31.877Z,102198.19
2022-08-07T13:36:22.119Z,102196.34
2022-08-07T13:39:12.930Z,102197.13
2022-08-07T13:41:55.815Z,102192.94
2022-08-07T13:44:34.479Z,102195.25
2022-08-07T13:47:09.142Z,102196.94
2022-08-07T13:50:32.539Z,102193.69
2022-08-07T13:52:40.986Z,102191.81
2022-08-07T13:55:19.735Z,102195.47
2022-08-07T13:58:27.977Z,102188.66
2022-08-07T14:01:09.923Z,102179.78
2022-08-07T14:04:08.152Z,102172.91
2022-08-07T14:06:33.926Z,102174.53
2022-08-07T14:09:04.654Z,102172.69
2022-08-07T14:11:53.704Z,102167.22
2022-08-07T14:14:40.096Z,102160.75
2022-08-07T14:18:12.872Z,102169.91
2022-08-07T14:20:42.699Z,102163.13
2022-08-07T14:23:10.035Z,102161.22
2022-08-07T14:25:47.909Z,102153.25
2022-08-07T14:28:19.252Z,102154.56
2022-08-07T14:30:52.330Z,102146.78
2022-08-07T14:33:23.419Z,102157.63
2022-08-07T14:35:58.621Z,102155.44
2022-08-07T14:38:33.459Z,102156.00
2022-08-07T14:41:06.147Z,102158.19
2022-08-07T14:43:57.106Z,102145.91
2022-08-07T14:46:33.280Z,102137.50
2022-08-07T14:52:04.281Z,102144.94
2022-08-07T14:54:42.274Z,102150.84
2022-08-07T14:57:18.765Z,102144.63
2022-08-07T15:00:05.297Z,102142.06
2022-08-07T15:02:37.295Z,102140.13
2022-08-07T15:05:20.094Z,102142.69
2022-08-07T15:07:52.244Z,102134.25
2022-08-07T15:10:26.318Z,102135.56
2022-08-07T15:13:00.807Z,102136.53
2022-08-07T15:15:38.785Z,102143.16
2022-08-07T15:18:34.035Z,102135.38
2022-08-07T15:21:58.706Z,102129.78
2022-08-07T15:25:14.758Z,102128.28
2022-08-07T15:27:04.817Z,102135.66
2022-08-07T15:30:04.746Z,102122.69
2022-08-07T15:32:39.007Z,102127.72
2022-08-07T15:35:16.899Z,102119.03
2022-08-07T15:38:04.645Z,102114.41
2022-08-07T15:41:00.416Z,102119.63
2022-08-07T15:43:56.380Z,102123.84
2022-08-07T15:46:32.383Z,102114.47
2022-08-07T15:49:15.112Z,102116.06
2022-08-07T15:54:39.535Z,102110.38
2022-08-07T15:57:39.324Z,102112.88
2022-08-07T16:00:06.394Z,102115.75
2022-08-07T16:02:46.931Z,102115.28
2022-08-07T16:05:23.098Z,102114.69
2022-08-07T16:08:33.055Z,102120.00
2022-08-07T16:11:25.384Z,102118.09
2022-08-07T16:14:09.011Z,102113.16
2022-08-07T16:18:02.526Z,102108.75
2022-08-07T16:21:04.664Z,102105.41
2022-08-07T16:23:58.837Z,102102.81
2022-08-07T16:27:00.028Z,102101.47
2022-08-07T16:30:29.732Z,102106.94
2022-08-07T16:34:02.251Z,102105.91
2022-08-07T16:36:04.274Z,102099.94
2022-08-07T16:39:02.368Z,102106.31
2022-08-07T16:41:54.361Z,102106.13
2022-08-07T16:45:14.750Z,102104.78
2022-08-07T16:48:13.689Z,102101.75
2022-08-07T16:51:21.850Z,102090.88
2022-08-07T16:54:33.025Z,102098.72
2022-08-07T16:57:28.848Z,102101.22
2022-08-07T17:00:29.605Z,102104.94
2022-08-07T17:03:58.069Z,102111.06
2022-08-07T17:06:31.137Z,102099.50
2022-08-07T17:09:14.351Z,102106.13
2022-08-07T17:12:35.944Z,102113.13
2022-08-07T17:15:05.978Z,102108.56
2022-08-07T17:17:50.169Z,102103.63
2022-08-07T17:20:32.772Z,102103.41
2022-08-07T17:23:11.599Z,102098.47
2022-08-07T17:25:57.264Z,102100.97
2022-08-07T17:28:38.755Z,102104.00
2022-08-07T17:31:26.176Z,102101.53
2022-08-07T17:34:33.101Z,102110.22
2022-08-07T17:37:09.582Z,102092.06
2022-08-07T17:40:03.459Z,102096.19
2022-08-07T17:42:59.697Z,102095.78
2022-08-07T17:45:55.386Z,102087.34
2022-08-07T17:48:33.610Z,102096.69
2022-08-07T17:51:11.443Z,102093.47
2022-08-07T17:54:02.036Z,102094.84
2022-08-07T17:56:49.932Z,102089.75
2022-08-07T17:59:26.881Z,102095.63
2022-08-07T18:02:14.656Z,102096.13
2022-08-07T18:05:20.766Z,102098.38
2022-08-07T18:08:23.926Z,102093.63
2022-08-07T18:12:07.334Z,102092.03
2022-08-07T18:14:01.819Z,102084.31
2022-08-07T18:16:35.598Z,102094.91
2022-08-07T18:21:08.886Z,102087.41
2022-08-07T18:22:33.612Z,102092.63
2022-08-07T18:25:19.023Z,102089.63
2022-08-07T18:28:35.230Z,102097.19
2022-08-07T18:31:18.605Z,102100.78
2022-08-07T18:34:33.815Z,102102.59
2022-08-07T18:38:59.080Z,102107.16
2022-08-07T18:40:42.631Z,102104.50
2022-08-07T18:43:42.957Z,102106.31
2022-08-07T18:46:27.097Z,102100.00
2022-08-07T18:50:31.423Z,102106.41
2022-08-07T18:52:34.836Z,102110.28
2022-08-07T18:55:42.519Z,102109.59
2022-08-07T18:58:52.222Z,102110.81
2022-08-07T19:02:32.372Z,102114.44
2022-08-07T19:04:54.663Z,102118.91
2022-08-07T19:07:51.960Z,102117.94
2022-08-07T19:10:32.010Z,102126.00
2022-08-07T19:13:26.611Z,102117.72
2022-08-07T19:17:01.473Z,102123.81
2022-08-07T19:19:01.399Z,102121.06
2022-08-07T19:21:44.123Z,102130.75
2022-08-07T19:24:31.035Z,102133.16
2022-08-07T19:28:29.376Z,102129.00
2022-08-07T19:31:06.043Z,102138.69
2022-08-07T19:32:59.371Z,102143.56
2022-08-07T19:35:33.062Z,102141.25
2022-08-07T19:38:15.123Z,102142.44
2022-08-07T19:40:51.310Z,102147.31
2022-08-07T19:43:50.172Z,102148.41
2022-08-07T19:46:15.754Z,102149.75
2022-08-07T19:48:57.070Z,102148.22
2022-08-07T19:51:51.968Z,102152.03
2022-08-07T19:54:33.607Z,102149.50
2022-08-07T19:58:00.974Z,102151.66
2022-08-07T20:00:08.908Z,102150.97
2022-08-07T20:02:52.329Z,102157.63
2022-08-07T20:05:28.696Z,102163.34
2022-08-07T20:08:03.316Z,102160.81
2022-08-07T20:10:55.494Z,102163.75
2022-08-07T20:13:38.430Z,102165.13
2022-08-07T20:16:32.349Z,102163.47
2022-08-07T20:19:05.520Z,102164.72
2022-08-07T20:21:42.080Z,102168.53
2022-08-07T20:24:21.806Z,102175.25
2022-08-07T20:26:54.451Z,102173.69
2022-08-07T20:29:49.402Z,102178.53
2022-08-07T20:32:27.822Z,102174.38
2022-08-07T20:35:16.287Z,102170.19
2022-08-07T20:37:58.935Z,102166.03
2022-08-07T20:40:34.298Z,102172.69
2022-08-07T20:43:14.560Z,102172.13
2022-08-07T20:46:26.924Z,102173.47
2022-08-07T20:49:54.543Z,102174.81
2022-08-07T20:51:35.742Z,102173.50
2022-08-07T20:54:08.666Z,102181.19
2022-08-07T20:56:48.244Z,102177.94
2022-08-07T21:00:05.065Z,102170.25
2022-08-07T21:02:34.038Z,102179.75
2022-08-07T21:05:10.301Z,102184.50
2022-08-07T21:07:49.651Z,102182.06
2022-08-07T21:10:25.114Z,102176.91
2022-08-07T21:13:01.706Z,102171.75
2022-08-07T21:15:58.610Z,102180.16
2022-08-07T21:18:31.988Z,102183.34
2022-08-07T21:21:04.124Z,102179.81
2022-08-07T21:23:50.505Z,102178.34
2022-08-07T21:26:43.074Z,102176.06
2022-08-07T21:29:18.530Z,102177.13
2022-08-07T21:32:47.132Z,102176.44
2022-08-07T21:35:00.545Z,102178.63
2022-08-07T21:37:58.079Z,102177.06
2022-08-07T21:40:38.437Z,102178.22
2022-08-07T21:43:14.878Z,102173.03
2022-08-07T21:46:08.413Z,102181.41
2022-08-07T21:48:55.747Z,102178.25
2022-08-07T21:51:51.593Z,102176.88
2022-08-07T21:54:36.348Z,102181.75
2022-08-07T21:57:31.085Z,102180.34
2022-08-07T22:00:23.005Z,102181.72
2022-08-07T22:03:06.277Z,102182.16
2022-08-07T22:05:48.629Z,102186.97
2022-08-07T22:08:23.386Z,102180.91
2022-08-07T22:11:01.319Z,102181.25
2022-08-07T22:13:51.261Z,102183.25
2022-08-07T22:16:45.678Z,102187.25
2022-08-07T22:19:23.574Z,102183.91
2022-08-07T22:22:18.121Z,102183.28
2022-08-07T22:25:10.879Z,102190.84
2022-08-07T22:28:08.319Z,102188.31
2022-08-07T22:30:52.733Z,102188.53
2022-08-07T22:33:53.221Z,102194.13
2022-08-07T22:36:35.943Z,102184.59
2022-08-07T22:39:24.179Z,102187.38
2022-08-07T22:42:18.847Z,102185.78
2022-08-07T22:44:58.651Z,102189.53
2022-08-07T22:47:58.417Z,102183.41
2022-08-07T22:50:55.491Z,102194.31
2022-08-07T22:54:07.030Z,102188.94
2022-08-07T22:56:36.542Z,102194.50
2022-08-07T22:59:52.299Z,102194.75
2022-08-07T23:02:47.643Z,102196.75
2022-08-07T23:06:06.947Z,102196.09
2022-08-07T23:10:04.947Z,102198.06
2022-08-07T23:12:20.991Z,102202.69
2022-08-07T23:16:06.796Z,102201.94
2022-08-07T23:18:32.353Z,102205.69
2022-08-07T23:21:16.246Z,102209.38
2022-08-07T23:24:17.917Z,102205.94
2022-08-07T23:27:02.930Z,102207.78
2022-08-07T23:30:38.437Z,102205.31
2022-08-07T23:34:34.909Z,102207.28
2022-08-07T23:36:46.793Z,102204.81
2022-08-07T23:39:46.675Z,102207.66
2022-08-07T23:42:35.879Z,102207.75
2022-08-07T23:45:33.276Z,102207.78
2022-08-07T23:48:27.776Z,102215.34
2022-08-07T23:51:04.879Z,102216.31
2022-08-07T23:54:05.232Z,102211.97
2022-08-07T23:56:53.967Z,102204.91
